sensor_id;sensor_type;location;lat;lon;timestamp;P1;durP1;ratioP1;P2;durP2;ratioP2
73675;SDS011;61975;48.660;10.164;2023-07-31T00:01:14;3.00;;;1.23;;
73675;SDS011;61975;48.660;10.164;2023-07-31T00:03:39;2.90;;;1.20;;
73675;SDS011;61975;48.660;10.164;2023-07-31T00:06:04;3.97;;;1.40;;
73675;SDS011;61975;48.660;10.164;2023-07-31T00:08:30;3.07;;;1.13;;
73675;SDS011;61975;48.660;10.164;2023-07-31T00:10:55;4.83;;;1.30;;
73675;SDS011;61975;48.660;10.164;2023-07-31T00:13:20;3.43;;;1.50;;
73675;SDS011;61975;48.660;10.164;2023-07-31T00:15:46;3.73;;;1.20;;
73675;SDS011;61975;48.660;10.164;2023-07-31T00:18:11;3.20;;;1.30;;
73675;SDS011;61975;48.660;10.164;2023-07-31T00:20:37;4.17;;;1.33;;
73675;SDS011;61975;48.660;10.164;2023-07-31T00:23:02;3.23;;;1.23;;
73675;SDS011;61975;48.660;10.164;2023-07-31T00:25:27;3.83;;;1.20;;
73675;SDS011;61975;48.660;10.164;2023-07-31T00:27:53;3.67;;;1.30;;
73675;SDS011;61975;48.660;10.164;2023-07-31T00:30:18;3.73;;;1.40;;
73675;SDS011;61975;48.660;10.164;2023-07-31T00:32:44;3.83;;;1.43;;
73675;SDS011;61975;48.660;10.164;2023-07-31T00:35:09;3.83;;;1.30;;
73675;SDS011;61975;48.660;10.164;2023-07-31T00:37:34;3.97;;;1.33;;
73675;SDS011;61975;48.660;10.164;2023-07-31T00:39:59;5.67;;;1.23;;
73675;SDS011;61975;48.660;10.164;2023-07-31T00:42:25;4.53;;;1.43;;
73675;SDS011;61975;48.660;10.164;2023-07-31T00:44:51;4.23;;;1.33;;
73675;SDS011;61975;48.660;10.164;2023-07-31T00:47:16;4.47;;;1.30;;
73675;SDS011;61975;48.660;10.164;2023-07-31T00:49:41;4.07;;;1.20;;
73675;SDS011;61975;48.660;10.164;2023-07-31T00:52:07;3.00;;;1.20;;
73675;SDS011;61975;48.660;10.164;2023-07-31T00:54:34;2.97;;;1.10;;
73675;SDS011;61975;48.660;10.164;2023-07-31T00:56:59;3.70;;;1.27;;
73675;SDS011;61975;48.660;10.164;2023-07-31T00:59:25;4.37;;;1.40;;
73675;SDS011;61975;48.660;10.164;2023-07-31T01:01:50;3.10;;;1.30;;
73675;SDS011;61975;48.660;10.164;2023-07-31T01:04:16;3.33;;;1.20;;
73675;SDS011;61975;48.660;10.164;2023-07-31T01:06:48;3.70;;;1.45;;
73675;SDS011;61975;48.660;10.164;2023-07-31T01:12:10;3.30;;;1.27;;
73675;SDS011;61975;48.660;10.164;2023-07-31T01:14:39;3.55;;;1.20;;
73675;SDS011;61975;48.660;10.164;2023-07-31T01:17:04;5.67;;;1.10;;
73675;SDS011;61975;48.660;10.164;2023-07-31T01:19:30;3.90;;;1.23;;
73675;SDS011;61975;48.660;10.164;2023-07-31T01:27:14;4.22;;;1.30;;
73675;SDS011;61975;48.660;10.164;2023-07-31T01:29:49;3.80;;;1.30;;
73675;SDS011;61975;48.660;10.164;2023-07-31T01:32:24;4.18;;;1.30;;
73675;SDS011;61975;48.660;10.164;2023-07-31T01:34:50;2.53;;;1.13;;
73675;SDS011;61975;48.660;10.164;2023-07-31T01:37:17;5.93;;;1.60;;
73675;SDS011;61975;48.660;10.164;2023-07-31T01:39:42;4.23;;;1.43;;
73675;SDS011;61975;48.660;10.164;2023-07-31T01:42:07;3.60;;;1.40;;
73675;SDS011;61975;48.660;10.164;2023-07-31T01:44:33;3.27;;;1.30;;
73675;SDS011;61975;48.660;10.164;2023-07-31T01:46:58;3.80;;;1.20;;
73675;SDS011;61975;48.660;10.164;2023-07-31T01:49:25;3.28;;;1.40;;
73675;SDS011;61975;48.660;10.164;2023-07-31T01:51:50;4.22;;;1.35;;
73675;SDS011;61975;48.660;10.164;2023-07-31T01:54:16;3.60;;;1.47;;
73675;SDS011;61975;48.660;10.164;2023-07-31T01:56:41;4.20;;;1.43;;
73675;SDS011;61975;48.660;10.164;2023-07-31T01:59:07;4.03;;;1.40;;
73675;SDS011;61975;48.660;10.164;2023-07-31T02:01:32;3.70;;;1.15;;
73675;SDS011;61975;48.660;10.164;2023-07-31T02:03:57;3.20;;;1.40;;
73675;SDS011;61975;48.660;10.164;2023-07-31T02:06:23;3.00;;;1.40;;
73675;SDS011;61975;48.660;10.164;2023-07-31T02:08:48;4.27;;;1.33;;
73675;SDS011;61975;48.660;10.164;2023-07-31T02:11:14;3.22;;;1.35;;
73675;SDS011;61975;48.660;10.164;2023-07-31T02:13:39;4.73;;;1.30;;
73675;SDS011;61975;48.660;10.164;2023-07-31T02:16:05;4.67;;;1.50;;
73675;SDS011;61975;48.660;10.164;2023-07-31T02:18:30;3.93;;;1.40;;
73675;SDS011;61975;48.660;10.164;2023-07-31T02:20:55;3.70;;;1.40;;
73675;SDS011;61975;48.660;10.164;2023-07-31T02:23:21;4.00;;;1.40;;
73675;SDS011;61975;48.660;10.164;2023-07-31T02:25:46;4.27;;;1.40;;
73675;SDS011;61975;48.660;10.164;2023-07-31T02:28:12;3.43;;;1.33;;
73675;SDS011;61975;48.660;10.164;2023-07-31T02:30:38;3.43;;;1.40;;
73675;SDS011;61975;48.660;10.164;2023-07-31T02:33:03;5.82;;;1.50;;
73675;SDS011;61975;48.660;10.164;2023-07-31T02:35:29;3.97;;;1.50;;
73675;SDS011;61975;48.660;10.164;2023-07-31T02:37:55;4.07;;;1.47;;
73675;SDS011;61975;48.660;10.164;2023-07-31T02:40:20;4.67;;;1.60;;
73675;SDS011;61975;48.660;10.164;2023-07-31T02:42:46;4.00;;;1.30;;
73675;SDS011;61975;48.660;10.164;2023-07-31T02:45:11;4.22;;;1.58;;
73675;SDS011;61975;48.660;10.164;2023-07-31T02:47:36;2.90;;;1.23;;
73675;SDS011;61975;48.660;10.164;2023-07-31T02:50:02;3.80;;;1.37;;
73675;SDS011;61975;48.660;10.164;2023-07-31T02:52:28;4.75;;;1.48;;
73675;SDS011;61975;48.660;10.164;2023-07-31T02:54:53;4.90;;;1.57;;
73675;SDS011;61975;48.660;10.164;2023-07-31T02:57:19;4.60;;;1.60;;
73675;SDS011;61975;48.660;10.164;2023-07-31T02:59:44;4.27;;;1.50;;
73675;SDS011;61975;48.660;10.164;2023-07-31T03:02:10;5.70;;;1.37;;
73675;SDS011;61975;48.660;10.164;2023-07-31T03:04:36;4.97;;;1.63;;
73675;SDS011;61975;48.660;10.164;2023-07-31T03:07:01;3.90;;;1.53;;
73675;SDS011;61975;48.660;10.164;2023-07-31T03:09:30;5.05;;;1.50;;
73675;SDS011;61975;48.660;10.164;2023-07-31T03:11:56;4.47;;;1.63;;
73675;SDS011;61975;48.660;10.164;2023-07-31T03:14:21;3.92;;;1.30;;
73675;SDS011;61975;48.660;10.164;2023-07-31T03:16:47;4.10;;;1.55;;
73675;SDS011;61975;48.660;10.164;2023-07-31T03:19:13;6.35;;;1.70;;
73675;SDS011;61975;48.660;10.164;2023-07-31T03:21:39;3.20;;;1.40;;
73675;SDS011;61975;48.660;10.164;2023-07-31T03:24:04;4.43;;;1.40;;
73675;SDS011;61975;48.660;10.164;2023-07-31T03:26:31;3.70;;;1.30;;
73675;SDS011;61975;48.660;10.164;2023-07-31T03:28:56;3.22;;;1.42;;
73675;SDS011;61975;48.660;10.164;2023-07-31T03:31:22;3.77;;;1.50;;
73675;SDS011;61975;48.660;10.164;2023-07-31T03:33:47;4.40;;;1.50;;
73675;SDS011;61975;48.660;10.164;2023-07-31T03:36:12;3.37;;;1.50;;
73675;SDS011;61975;48.660;10.164;2023-07-31T03:38:38;4.28;;;1.50;;
73675;SDS011;61975;48.660;10.164;2023-07-31T03:41:03;3.37;;;1.30;;
73675;SDS011;61975;48.660;10.164;2023-07-31T03:43:30;4.10;;;1.57;;
73675;SDS011;61975;48.660;10.164;2023-07-31T03:45:55;3.78;;;1.40;;
73675;SDS011;61975;48.660;10.164;2023-07-31T03:48:21;3.30;;;1.37;;
73675;SDS011;61975;48.660;10.164;2023-07-31T03:50:46;3.20;;;1.50;;
73675;SDS011;61975;48.660;10.164;2023-07-31T03:53:11;3.20;;;1.20;;
73675;SDS011;61975;48.660;10.164;2023-07-31T03:55:37;4.50;;;1.27;;
73675;SDS011;61975;48.660;10.164;2023-07-31T03:58:03;3.40;;;1.37;;
73675;SDS011;61975;48.660;10.164;2023-07-31T04:00:30;3.33;;;1.48;;
73675;SDS011;61975;48.660;10.164;2023-07-31T04:02:55;3.10;;;1.33;;
73675;SDS011;61975;48.660;10.164;2023-07-31T04:05:21;3.83;;;1.40;;
73675;SDS011;61975;48.660;10.164;2023-07-31T04:07:46;4.07;;;1.30;;
73675;SDS011;61975;48.660;10.164;2023-07-31T04:10:11;4.57;;;1.70;;
73675;SDS011;61975;48.660;10.164;2023-07-31T04:12:37;3.97;;;1.50;;
73675;SDS011;61975;48.660;10.164;2023-07-31T04:15:02;3.53;;;1.47;;
73675;SDS011;61975;48.660;10.164;2023-07-31T04:17:28;3.65;;;1.60;;
73675;SDS011;61975;48.660;10.164;2023-07-31T04:19:53;3.20;;;1.20;;
73675;SDS011;61975;48.660;10.164;2023-07-31T04:22:18;4.90;;;1.70;;
73675;SDS011;61975;48.660;10.164;2023-07-31T04:24:44;13.40;;;2.10;;
73675;SDS011;61975;48.660;10.164;2023-07-31T04:27:09;5.43;;;1.70;;
73675;SDS011;61975;48.660;10.164;2023-07-31T04:29:34;3.73;;;1.40;;
73675;SDS011;61975;48.660;10.164;2023-07-31T04:32:00;3.47;;;1.43;;
73675;SDS011;61975;48.660;10.164;2023-07-31T04:34:25;4.20;;;1.58;;
73675;SDS011;61975;48.660;10.164;2023-07-31T04:36:50;3.40;;;1.50;;
73675;SDS011;61975;48.660;10.164;2023-07-31T04:39:16;3.10;;;1.53;;
73675;SDS011;61975;48.660;10.164;2023-07-31T04:41:41;3.00;;;1.43;;
73675;SDS011;61975;48.660;10.164;2023-07-31T04:44:07;4.10;;;1.40;;
73675;SDS011;61975;48.660;10.164;2023-07-31T04:46:32;3.10;;;1.40;;
73675;SDS011;61975;48.660;10.164;2023-07-31T04:48:57;5.37;;;1.77;;
73675;SDS011;61975;48.660;10.164;2023-07-31T04:51:23;6.07;;;1.80;;
73675;SDS011;61975;48.660;10.164;2023-07-31T04:53:48;5.10;;;1.60;;
73675;SDS011;61975;48.660;10.164;2023-07-31T04:56:14;4.13;;;1.43;;
73675;SDS011;61975;48.660;10.164;2023-07-31T04:58:40;5.28;;;1.50;;
73675;SDS011;61975;48.660;10.164;2023-07-31T05:01:06;4.80;;;1.70;;
73675;SDS011;61975;48.660;10.164;2023-07-31T05:03:31;5.45;;;1.58;;
73675;SDS011;61975;48.660;10.164;2023-07-31T05:05:56;4.10;;;1.80;;
73675;SDS011;61975;48.660;10.164;2023-07-31T05:08:22;4.37;;;1.63;;
73675;SDS011;61975;48.660;10.164;2023-07-31T05:10:47;4.00;;;1.50;;
73675;SDS011;61975;48.660;10.164;2023-07-31T05:13:13;4.28;;;1.35;;
73675;SDS011;61975;48.660;10.164;2023-07-31T05:15:39;3.27;;;1.60;;
73675;SDS011;61975;48.660;10.164;2023-07-31T05:18:06;4.13;;;1.40;;
73675;SDS011;61975;48.660;10.164;2023-07-31T05:20:31;4.57;;;1.30;;
73675;SDS011;61975;48.660;10.164;2023-07-31T05:22:57;3.40;;;1.53;;
73675;SDS011;61975;48.660;10.164;2023-07-31T05:25:22;3.90;;;1.60;;
73675;SDS011;61975;48.660;10.164;2023-07-31T05:27:47;3.65;;;1.48;;
73675;SDS011;61975;48.660;10.164;2023-07-31T05:30:13;4.03;;;1.50;;
73675;SDS011;61975;48.660;10.164;2023-07-31T05:32:38;3.30;;;1.50;;
73675;SDS011;61975;48.660;10.164;2023-07-31T05:35:04;4.07;;;1.90;;
73675;SDS011;61975;48.660;10.164;2023-07-31T05:37:29;3.83;;;1.42;;
73675;SDS011;61975;48.660;10.164;2023-07-31T05:39:55;3.93;;;1.83;;
73675;SDS011;61975;48.660;10.164;2023-07-31T05:42:20;2.80;;;1.30;;
73675;SDS011;61975;48.660;10.164;2023-07-31T05:44:46;3.63;;;1.40;;
73675;SDS011;61975;48.660;10.164;2023-07-31T05:47:12;3.92;;;1.42;;
73675;SDS011;61975;48.660;10.164;2023-07-31T05:49:37;4.43;;;1.50;;
73675;SDS011;61975;48.660;10.164;2023-07-31T05:52:03;3.42;;;1.63;;
73675;SDS011;61975;48.660;10.164;2023-07-31T05:54:28;4.00;;;1.50;;
73675;SDS011;61975;48.660;10.164;2023-07-31T05:56:54;3.90;;;1.50;;
73675;SDS011;61975;48.660;10.164;2023-07-31T05:59:20;4.07;;;1.67;;
73675;SDS011;61975;48.660;10.164;2023-07-31T06:01:45;3.20;;;1.50;;
73675;SDS011;61975;48.660;10.164;2023-07-31T06:04:10;5.40;;;1.80;;
73675;SDS011;61975;48.660;10.164;2023-07-31T06:06:36;5.43;;;1.77;;
73675;SDS011;61975;48.660;10.164;2023-07-31T06:09:01;3.60;;;1.50;;
73675;SDS011;61975;48.660;10.164;2023-07-31T06:11:28;4.55;;;1.60;;
73675;SDS011;61975;48.660;10.164;2023-07-31T06:13:53;3.93;;;1.63;;
73675;SDS011;61975;48.660;10.164;2023-07-31T06:16:19;4.07;;;1.70;;
73675;SDS011;61975;48.660;10.164;2023-07-31T06:18:46;4.18;;;1.70;;
73675;SDS011;61975;48.660;10.164;2023-07-31T06:21:11;3.30;;;1.60;;
73675;SDS011;61975;48.660;10.164;2023-07-31T06:23:37;6.83;;;2.03;;
73675;SDS011;61975;48.660;10.164;2023-07-31T06:26:02;4.90;;;1.70;;
73675;SDS011;61975;48.660;10.164;2023-07-31T06:28:28;5.73;;;1.90;;
73675;SDS011;61975;48.660;10.164;2023-07-31T06:30:54;4.85;;;1.65;;
73675;SDS011;61975;48.660;10.164;2023-07-31T06:33:20;4.23;;;1.80;;
73675;SDS011;61975;48.660;10.164;2023-07-31T06:35:45;5.13;;;1.67;;
73675;SDS011;61975;48.660;10.164;2023-07-31T06:38:10;5.03;;;1.60;;
73675;SDS011;61975;48.660;10.164;2023-07-31T06:40:36;5.43;;;1.70;;
73675;SDS011;61975;48.660;10.164;2023-07-31T06:43:01;5.57;;;1.70;;
73675;SDS011;61975;48.660;10.164;2023-07-31T06:45:32;4.35;;;1.60;;
73675;SDS011;61975;48.660;10.164;2023-07-31T06:47:59;4.68;;;2.05;;
73675;SDS011;61975;48.660;10.164;2023-07-31T06:50:26;5.07;;;1.77;;
73675;SDS011;61975;48.660;10.164;2023-07-31T06:52:52;4.30;;;1.67;;
73675;SDS011;61975;48.660;10.164;2023-07-31T06:55:18;3.30;;;1.60;;
73675;SDS011;61975;48.660;10.164;2023-07-31T06:57:45;5.87;;;1.77;;
73675;SDS011;61975;48.660;10.164;2023-07-31T07:00:12;3.42;;;1.30;;
73675;SDS011;61975;48.660;10.164;2023-07-31T07:02:38;5.13;;;1.85;;
73675;SDS011;61975;48.660;10.164;2023-07-31T07:05:03;5.17;;;1.33;;
73675;SDS011;61975;48.660;10.164;2023-07-31T07:07:29;4.55;;;1.63;;
73675;SDS011;61975;48.660;10.164;2023-07-31T07:09:54;3.90;;;1.43;;
73675;SDS011;61975;48.660;10.164;2023-07-31T07:12:20;3.83;;;1.53;;
73675;SDS011;61975;48.660;10.164;2023-07-31T07:14:45;4.67;;;1.57;;
73675;SDS011;61975;48.660;10.164;2023-07-31T07:17:13;3.65;;;1.48;;
73675;SDS011;61975;48.660;10.164;2023-07-31T07:19:40;3.50;;;1.40;;
73675;SDS011;61975;48.660;10.164;2023-07-31T07:22:06;5.65;;;1.70;;
73675;SDS011;61975;48.660;10.164;2023-07-31T07:24:32;4.83;;;1.60;;
73675;SDS011;61975;48.660;10.164;2023-07-31T07:26:57;3.70;;;1.50;;
73675;SDS011;61975;48.660;10.164;2023-07-31T07:29:22;2.92;;;1.33;;
73675;SDS011;61975;48.660;10.164;2023-07-31T07:31:48;3.67;;;1.50;;
73675;SDS011;61975;48.660;10.164;2023-07-31T07:34:13;3.83;;;1.30;;
73675;SDS011;61975;48.660;10.164;2023-07-31T07:36:38;3.47;;;1.30;;
73675;SDS011;61975;48.660;10.164;2023-07-31T07:39:04;3.70;;;1.37;;
73675;SDS011;61975;48.660;10.164;2023-07-31T07:41:30;5.25;;;1.30;;
73675;SDS011;61975;48.660;10.164;2023-07-31T07:43:55;5.67;;;1.20;;
73675;SDS011;61975;48.660;10.164;2023-07-31T07:46:20;3.77;;;1.30;;
73675;SDS011;61975;48.660;10.164;2023-07-31T07:48:46;4.43;;;1.20;;
73675;SDS011;61975;48.660;10.164;2023-07-31T07:51:11;4.50;;;1.30;;
73675;SDS011;61975;48.660;10.164;2023-07-31T07:53:36;4.53;;;1.33;;
73675;SDS011;61975;48.660;10.164;2023-07-31T07:56:02;4.43;;;1.20;;
73675;SDS011;61975;48.660;10.164;2023-07-31T07:58:27;4.10;;;1.50;;
73675;SDS011;61975;48.660;10.164;2023-07-31T08:00:53;3.90;;;1.30;;
73675;SDS011;61975;48.660;10.164;2023-07-31T08:03:18;3.57;;;1.20;;
73675;SDS011;61975;48.660;10.164;2023-07-31T08:05:44;4.63;;;1.60;;
73675;SDS011;61975;48.660;10.164;2023-07-31T08:08:13;3.50;;;1.30;;
73675;SDS011;61975;48.660;10.164;2023-07-31T08:10:40;4.57;;;1.40;;
73675;SDS011;61975;48.660;10.164;2023-07-31T08:13:06;4.60;;;1.20;;
73675;SDS011;61975;48.660;10.164;2023-07-31T08:15:31;4.38;;;1.40;;
73675;SDS011;61975;48.660;10.164;2023-07-31T08:17:56;3.13;;;1.30;;
73675;SDS011;61975;48.660;10.164;2023-07-31T08:20:22;3.20;;;1.30;;
73675;SDS011;61975;48.660;10.164;2023-07-31T08:22:48;3.67;;;1.40;;
73675;SDS011;61975;48.660;10.164;2023-07-31T08:25:13;4.57;;;1.45;;
73675;SDS011;61975;48.660;10.164;2023-07-31T08:27:42;4.63;;;1.47;;
73675;SDS011;61975;48.660;10.164;2023-07-31T08:30:08;5.97;;;1.38;;
73675;SDS011;61975;48.660;10.164;2023-07-31T08:32:34;4.68;;;1.35;;
73675;SDS011;61975;48.660;10.164;2023-07-31T08:34:59;5.37;;;1.43;;
73675;SDS011;61975;48.660;10.164;2023-07-31T08:37:25;4.17;;;1.23;;
73675;SDS011;61975;48.660;10.164;2023-07-31T08:39:50;4.23;;;1.20;;
73675;SDS011;61975;48.660;10.164;2023-07-31T08:42:16;3.60;;;1.40;;
73675;SDS011;61975;48.660;10.164;2023-07-31T08:44:41;3.67;;;1.50;;
73675;SDS011;61975;48.660;10.164;2023-07-31T08:47:08;5.10;;;1.70;;
73675;SDS011;61975;48.660;10.164;2023-07-31T08:49:35;4.63;;;1.57;;
73675;SDS011;61975;48.660;10.164;2023-07-31T08:52:03;5.38;;;1.65;;
73675;SDS011;61975;48.660;10.164;2023-07-31T08:54:29;5.43;;;1.30;;
73675;SDS011;61975;48.660;10.164;2023-07-31T08:56:56;4.85;;;1.50;;
73675;SDS011;61975;48.660;10.164;2023-07-31T08:59:23;5.47;;;1.70;;
73675;SDS011;61975;48.660;10.164;2023-07-31T09:01:49;5.28;;;1.50;;
73675;SDS011;61975;48.660;10.164;2023-07-31T09:04:19;6.07;;;1.70;;
73675;SDS011;61975;48.660;10.164;2023-07-31T09:06:46;4.82;;;1.40;;
73675;SDS011;61975;48.660;10.164;2023-07-31T09:09:13;4.35;;;1.30;;
73675;SDS011;61975;48.660;10.164;2023-07-31T09:11:38;5.77;;;1.53;;
73675;SDS011;61975;48.660;10.164;2023-07-31T09:14:04;4.80;;;1.42;;
73675;SDS011;61975;48.660;10.164;2023-07-31T09:16:33;3.90;;;1.23;;
73675;SDS011;61975;48.660;10.164;2023-07-31T09:18:59;4.65;;;1.38;;
73675;SDS011;61975;48.660;10.164;2023-07-31T09:21:27;4.40;;;1.25;;
73675;SDS011;61975;48.660;10.164;2023-07-31T09:23:53;5.37;;;1.57;;
73675;SDS011;61975;48.660;10.164;2023-07-31T09:26:34;4.60;;;1.42;;
73675;SDS011;61975;48.660;10.164;2023-07-31T09:29:01;6.63;;;1.83;;
73675;SDS011;61975;48.660;10.164;2023-07-31T09:31:48;3.78;;;1.40;;
73675;SDS011;61975;48.660;10.164;2023-07-31T09:34:13;5.25;;;1.55;;
73675;SDS011;61975;48.660;10.164;2023-07-31T09:36:45;4.30;;;1.47;;
73675;SDS011;61975;48.660;10.164;2023-07-31T09:39:13;4.50;;;1.33;;
73675;SDS011;61975;48.660;10.164;2023-07-31T09:41:44;4.00;;;1.30;;
73675;SDS011;61975;48.660;10.164;2023-07-31T09:44:12;4.05;;;1.40;;
73675;SDS011;61975;48.660;10.164;2023-07-31T09:46:38;4.35;;;1.40;;
73675;SDS011;61975;48.660;10.164;2023-07-31T09:51:30;3.65;;;1.30;;
73675;SDS011;61975;48.660;10.164;2023-07-31T09:53:56;5.47;;;1.65;;
73675;SDS011;61975;48.660;10.164;2023-07-31T09:56:21;3.43;;;1.37;;
73675;SDS011;61975;48.660;10.164;2023-07-31T09:58:48;3.72;;;1.48;;
73675;SDS011;61975;48.660;10.164;2023-07-31T10:01:14;5.07;;;1.60;;
73675;SDS011;61975;48.660;10.164;2023-07-31T10:03:40;4.18;;;1.50;;
73675;SDS011;61975;48.660;10.164;2023-07-31T10:06:07;5.03;;;1.60;;
73675;SDS011;61975;48.660;10.164;2023-07-31T10:08:34;5.20;;;1.40;;
73675;SDS011;61975;48.660;10.164;2023-07-31T10:11:02;4.57;;;1.63;;
73675;SDS011;61975;48.660;10.164;2023-07-31T10:13:29;4.53;;;1.33;;
73675;SDS011;61975;48.660;10.164;2023-07-31T10:15:58;5.65;;;1.30;;
73675;SDS011;61975;48.660;10.164;2023-07-31T10:18:25;3.95;;;1.52;;
73675;SDS011;61975;48.660;10.164;2023-07-31T10:20:51;5.15;;;1.42;;
73675;SDS011;61975;48.660;10.164;2023-07-31T10:23:17;4.47;;;1.30;;
73675;SDS011;61975;48.660;10.164;2023-07-31T10:25:43;3.77;;;1.50;;
73675;SDS011;61975;48.660;10.164;2023-07-31T10:28:09;4.45;;;1.52;;
73675;SDS011;61975;48.660;10.164;2023-07-31T10:30:36;4.43;;;1.30;;
73675;SDS011;61975;48.660;10.164;2023-07-31T10:33:03;4.15;;;1.30;;
73675;SDS011;61975;48.660;10.164;2023-07-31T10:35:30;2.97;;;1.40;;
73675;SDS011;61975;48.660;10.164;2023-07-31T10:37:55;4.28;;;1.40;;
73675;SDS011;61975;48.660;10.164;2023-07-31T10:40:35;4.32;;;1.17;;
73675;SDS011;61975;48.660;10.164;2023-07-31T10:43:01;3.97;;;1.30;;
73675;SDS011;61975;48.660;10.164;2023-07-31T10:45:39;5.03;;;1.35;;
73675;SDS011;61975;48.660;10.164;2023-07-31T10:48:14;5.70;;;1.40;;
73675;SDS011;61975;48.660;10.164;2023-07-31T10:50:51;3.40;;;1.33;;
73675;SDS011;61975;48.660;10.164;2023-07-31T10:53:29;3.22;;;1.30;;
73675;SDS011;61975;48.660;10.164;2023-07-31T10:55:59;2.85;;;1.40;;
73675;SDS011;61975;48.660;10.164;2023-07-31T10:58:25;4.53;;;1.65;;
73675;SDS011;61975;48.660;10.164;2023-07-31T11:00:54;4.13;;;1.40;;
73675;SDS011;61975;48.660;10.164;2023-07-31T11:03:24;3.35;;;1.50;;
73675;SDS011;61975;48.660;10.164;2023-07-31T11:08:29;3.63;;;1.40;;
73675;SDS011;61975;48.660;10.164;2023-07-31T11:13:27;4.10;;;1.50;;
73675;SDS011;61975;48.660;10.164;2023-07-31T11:15:53;4.07;;;1.50;;
73675;SDS011;61975;48.660;10.164;2023-07-31T11:18:18;4.13;;;1.50;;
73675;SDS011;61975;48.660;10.164;2023-07-31T11:20:44;3.87;;;1.40;;
73675;SDS011;61975;48.660;10.164;2023-07-31T11:23:10;4.70;;;1.75;;
73675;SDS011;61975;48.660;10.164;2023-07-31T11:25:37;5.50;;;1.50;;
73675;SDS011;61975;48.660;10.164;2023-07-31T11:28:10;4.10;;;1.40;;
73675;SDS011;61975;48.660;10.164;2023-07-31T11:30:40;4.28;;;1.40;;
73675;SDS011;61975;48.660;10.164;2023-07-31T11:33:06;5.90;;;1.55;;
73675;SDS011;61975;48.660;10.164;2023-07-31T11:35:36;4.97;;;1.63;;
73675;SDS011;61975;48.660;10.164;2023-07-31T11:38:07;3.70;;;1.20;;
73675;SDS011;61975;48.660;10.164;2023-07-31T11:40:42;5.18;;;1.25;;
73675;SDS011;61975;48.660;10.164;2023-07-31T11:43:08;5.22;;;1.38;;
73675;SDS011;61975;48.660;10.164;2023-07-31T11:45:33;3.67;;;1.37;;
73675;SDS011;61975;48.660;10.164;2023-07-31T11:48:00;3.90;;;1.40;;
73675;SDS011;61975;48.660;10.164;2023-07-31T11:50:26;5.25;;;1.50;;
73675;SDS011;61975;48.660;10.164;2023-07-31T11:52:57;4.23;;;1.87;;
73675;SDS011;61975;48.660;10.164;2023-07-31T11:55:26;3.60;;;1.40;;
73675;SDS011;61975;48.660;10.164;2023-07-31T11:57:52;5.75;;;1.50;;
73675;SDS011;61975;48.660;10.164;2023-07-31T12:00:19;3.77;;;1.57;;
73675;SDS011;61975;48.660;10.164;2023-07-31T12:02:45;3.83;;;1.52;;
73675;SDS011;61975;48.660;10.164;2023-07-31T12:05:11;4.10;;;1.70;;
73675;SDS011;61975;48.660;10.164;2023-07-31T12:07:53;3.65;;;1.63;;
73675;SDS011;61975;48.660;10.164;2023-07-31T12:10:29;4.67;;;1.60;;
73675;SDS011;61975;48.660;10.164;2023-07-31T12:13:06;4.65;;;1.58;;
73675;SDS011;61975;48.660;10.164;2023-07-31T12:15:42;3.60;;;1.60;;
73675;SDS011;61975;48.660;10.164;2023-07-31T12:20:47;5.05;;;1.63;;
73675;SDS011;61975;48.660;10.164;2023-07-31T12:23:14;4.20;;;1.60;;
73675;SDS011;61975;48.660;10.164;2023-07-31T12:25:40;3.72;;;1.50;;
73675;SDS011;61975;48.660;10.164;2023-07-31T12:28:06;3.45;;;1.52;;
73675;SDS011;61975;48.660;10.164;2023-07-31T12:30:36;3.80;;;1.60;;
73675;SDS011;61975;48.660;10.164;2023-07-31T12:33:06;4.95;;;1.67;;
73675;SDS011;61975;48.660;10.164;2023-07-31T12:35:39;3.53;;;1.40;;
73675;SDS011;61975;48.660;10.164;2023-07-31T12:38:06;4.93;;;1.80;;
73675;SDS011;61975;48.660;10.164;2023-07-31T12:40:32;4.73;;;1.90;;
73675;SDS011;61975;48.660;10.164;2023-07-31T12:42:57;3.65;;;1.67;;
73675;SDS011;61975;48.660;10.164;2023-07-31T12:45:25;3.65;;;1.60;;
73675;SDS011;61975;48.660;10.164;2023-07-31T12:47:52;3.97;;;1.77;;
73675;SDS011;61975;48.660;10.164;2023-07-31T12:50:17;4.63;;;1.70;;
73675;SDS011;61975;48.660;10.164;2023-07-31T12:52:42;3.80;;;1.80;;
73675;SDS011;61975;48.660;10.164;2023-07-31T12:55:08;4.57;;;1.70;;
73675;SDS011;61975;48.660;10.164;2023-07-31T12:57:33;4.60;;;1.93;;
73675;SDS011;61975;48.660;10.164;2023-07-31T12:59:59;4.53;;;2.00;;
73675;SDS011;61975;48.660;10.164;2023-07-31T13:02:24;4.63;;;1.70;;
73675;SDS011;61975;48.660;10.164;2023-07-31T13:04:50;4.70;;;1.87;;
73675;SDS011;61975;48.660;10.164;2023-07-31T13:07:15;4.25;;;1.73;;
73675;SDS011;61975;48.660;10.164;2023-07-31T13:09:41;4.07;;;1.80;;
73675;SDS011;61975;48.660;10.164;2023-07-31T13:12:06;3.67;;;1.80;;
73675;SDS011;61975;48.660;10.164;2023-07-31T13:14:32;4.70;;;1.80;;
73675;SDS011;61975;48.660;10.164;2023-07-31T13:16:57;4.47;;;1.70;;
73675;SDS011;61975;48.660;10.164;2023-07-31T13:19:23;4.33;;;2.00;;
73675;SDS011;61975;48.660;10.164;2023-07-31T13:21:48;5.43;;;1.77;;
73675;SDS011;61975;48.660;10.164;2023-07-31T13:24:14;4.23;;;1.80;;
73675;SDS011;61975;48.660;10.164;2023-07-31T13:26:39;4.60;;;1.88;;
73675;SDS011;61975;48.660;10.164;2023-07-31T13:29:04;3.90;;;1.70;;
73675;SDS011;61975;48.660;10.164;2023-07-31T13:31:30;6.43;;;2.00;;
73675;SDS011;61975;48.660;10.164;2023-07-31T13:33:55;4.67;;;2.00;;
73675;SDS011;61975;48.660;10.164;2023-07-31T13:36:20;5.57;;;1.90;;
73675;SDS011;61975;48.660;10.164;2023-07-31T13:38:46;5.47;;;1.90;;
73675;SDS011;61975;48.660;10.164;2023-07-31T13:41:13;4.00;;;1.70;;
73675;SDS011;61975;48.660;10.164;2023-07-31T13:43:39;4.43;;;1.83;;
73675;SDS011;61975;48.660;10.164;2023-07-31T13:46:06;4.57;;;2.03;;
73675;SDS011;61975;48.660;10.164;2023-07-31T13:48:35;4.47;;;1.80;;
73675;SDS011;61975;48.660;10.164;2023-07-31T13:51:01;3.60;;;1.70;;
73675;SDS011;61975;48.660;10.164;2023-07-31T13:53:26;4.73;;;1.90;;
73675;SDS011;61975;48.660;10.164;2023-07-31T13:55:52;4.47;;;2.00;;
73675;SDS011;61975;48.660;10.164;2023-07-31T13:58:17;4.70;;;2.00;;
73675;SDS011;61975;48.660;10.164;2023-07-31T14:00:43;4.70;;;1.90;;
73675;SDS011;61975;48.660;10.164;2023-07-31T14:03:08;4.38;;;1.90;;
73675;SDS011;61975;48.660;10.164;2023-07-31T14:05:34;5.13;;;2.10;;
73675;SDS011;61975;48.660;10.164;2023-07-31T14:08:00;5.88;;;2.22;;
73675;SDS011;61975;48.660;10.164;2023-07-31T14:10:25;3.77;;;1.83;;
73675;SDS011;61975;48.660;10.164;2023-07-31T14:12:50;4.83;;;1.90;;
73675;SDS011;61975;48.660;10.164;2023-07-31T14:15:16;4.77;;;2.17;;
73675;SDS011;61975;48.660;10.164;2023-07-31T14:17:41;6.87;;;2.40;;
73675;SDS011;61975;48.660;10.164;2023-07-31T14:20:07;5.10;;;2.33;;
73675;SDS011;61975;48.660;10.164;2023-07-31T14:22:33;5.87;;;2.40;;
73675;SDS011;61975;48.660;10.164;2023-07-31T14:24:59;4.95;;;1.88;;
73675;SDS011;61975;48.660;10.164;2023-07-31T14:27:25;4.03;;;2.08;;
73675;SDS011;61975;48.660;10.164;2023-07-31T14:29:50;4.73;;;2.20;;
73675;SDS011;61975;48.660;10.164;2023-07-31T14:32:16;4.32;;;2.20;;
73675;SDS011;61975;48.660;10.164;2023-07-31T14:34:41;3.83;;;1.60;;
73675;SDS011;61975;48.660;10.164;2023-07-31T14:37:06;6.47;;;2.27;;
73675;SDS011;61975;48.660;10.164;2023-07-31T14:39:32;6.13;;;2.50;;
73675;SDS011;61975;48.660;10.164;2023-07-31T14:41:57;6.27;;;2.27;;
73675;SDS011;61975;48.660;10.164;2023-07-31T14:44:22;4.70;;;1.80;;
73675;SDS011;61975;48.660;10.164;2023-07-31T14:46:48;4.23;;;1.60;;